Time;durP1;ratioP1;P1;durP2;ratioP2;P2;SDS_P1;SDS_P2;PMS_P1;PMS_P2;Temp;Humidity;BMP_temperature;BMP_pressure;BME280_temperature;BME280_humidity;BME280_pressure;Samples;Min_cycle;Max_cycle;Signal;HPM_P1;HPM_P2
2021/01/21 00:02:13;;;;;;;;;;;;;;;-0.55;72.42;96541.84;1803517;79;25884;-80
2021/01/21 00:04:40;;;;;;;;;;;;;;;-0.65;72.48;96540.33;1796688;79;25805;-82
2021/01/21 00:07:07;;;;;;;;;;;;;;;-0.68;72.61;96532.20;1771760;79;27621;-82
2021/01/21 00:09:34;;;;;;;;;;;;;;;-0.64;72.66;96532.22;1770601;79;25781;-81
2021/01/21 00:12:01;;;;;;;;;;;;;;;-0.61;72.60;96534.55;1786000;79;25805;-81
2021/01/21 00:14:28;;;;;;;;;;;;;;;-0.63;72.61;96538.35;1805839;79;25822;-82
2021/01/21 00:16:55;;;;;;;;;;;;;;;-0.70;72.60;96538.16;1803490;79;25876;-81
2021/01/21 00:19:22;;;;;;;;;;;;;;;-0.79;72.65;96540.46;1803451;79;27474;-81
2021/01/21 00:21:50;;;;;;;;;;;;;;;-0.88;72.73;96545.41;1780946;79;26116;-82
2021/01/21 00:24:16;;;;;;;;;;;;;;;-0.89;72.80;96533.16;1784795;79;25738;-82
2021/01/21 00:26:43;;;;;;;;;;;;;;;-0.90;72.80;96536.80;1794035;79;25818;-82
2021/01/21 00:29:11;;;;;;;;;;;;;;;-0.90;72.80;96528.84;1771777;79;26012;-81
2021/01/21 00:31:38;;;;;;;;;;;;;;;-0.93;72.86;96529.98;1797954;79;28607;-81
2021/01/21 00:34:05;;;;;;;;;;;;;;;-0.97;73.00;96521.22;1805224;79;25733;-81
2021/01/21 00:36:32;;;;;;;;;;;;;;;-1.00;73.23;96521.04;1780865;79;25822;-81
2021/01/21 00:38:59;;;;;;;;;;;;;;;-1.01;73.29;96526.50;1803253;79;25898;-82
2021/01/21 00:41:26;;;;;;;;;;;;;;;-1.03;73.12;96520.52;1803396;79;25830;-80
2021/01/21 00:43:53;;;;;;;;;;;;;;;-1.09;73.29;96528.11;1795037;79;28979;-80
2021/01/21 00:46:20;;;;;;;;;;;;;;;-1.07;73.44;96521.83;1789500;79;26031;-80
2021/01/21 00:48:47;;;;;;;;;;;;;;;-1.02;73.48;96523.02;1797959;79;25702;-80
2021/01/21 00:51:14;;;;;;;;;;;;;;;-1.03;73.37;96512.58;1786962;79;25818;-80
2021/01/21 00:53:41;;;;;;;;;;;;;;;-1.06;73.33;96515.54;1803484;79;25761;-80
2021/01/21 00:56:08;;;;;;;;;;;;;;;-1.11;73.29;96507.60;1803166;79;26750;-80
2021/01/21 00:58:35;;;;;;;;;;;;;;;-1.19;73.40;96506.23;1802417;79;25943;-80
2021/01/21 01:01:02;;;;;;;;;;;;;;;-1.25;73.40;96506.89;1781116;79;25847;-80
2021/01/21 01:03:28;;;;;;;;;;;;;;;-1.27;73.49;96502.23;1789914;79;27085;-81
2021/01/21 01:05:55;;;;;;;;;;;;;;;-1.32;73.44;96504.52;1794973;79;25339;-80
2021/01/21 01:08:22;;;;;;;;;;;;;;;-1.29;73.43;96504.70;1802203;79;27528;-82
2021/01/21 01:10:49;;;;;;;;;;;;;;;-1.33;73.40;96500.25;1780631;79;25794;-81
2021/01/21 01:13:16;;;;;;;;;;;;;;;-1.38;73.46;96494.59;1795960;79;25331;-80
2021/01/21 01:15:43;;;;;;;;;;;;;;;-1.37;73.52;96497.58;1797229;79;25769;-81
2021/01/21 01:18:10;;;;;;;;;;;;;;;-1.37;73.54;96494.92;1775057;79;25739;-81
2021/01/21 01:20:37;;;;;;;;;;;;;;;-1.36;73.61;96478.55;1781312;79;27564;-80
2021/01/21 01:23:04;;;;;;;;;;;;;;;-1.44;73.44;96485.95;1765091;79;25699;-81
2021/01/21 01:25:32;;;;;;;;;;;;;;;-1.47;73.56;96490.26;1764828;79;26257;-81
2021/01/21 01:27:59;;;;;;;;;;;;;;;-1.48;73.69;96484.63;1765766;79;25689;-81
2021/01/21 01:30:25;;;;;;;;;;;;;;;-1.49;73.78;96480.31;1765252;79;25814;-80
2021/01/21 01:32:52;;;;;;;;;;;;;;;-1.49;73.85;96477.67;1765080;79;28494;-81
2021/01/21 01:35:19;;;;;;;;;;;;;;;-1.47;73.80;96472.56;1795086;79;25689;-80
2021/01/21 01:37:46;;;;;;;;;;;;;;;-1.41;73.81;96461.81;1797205;79;26458;-80
2021/01/21 01:40:14;;;;;;;;;;;;;;;-1.37;73.74;96468.45;1797140;79;26758;-80
2021/01/21 01:42:42;;;;;;;;;;;;;;;-1.42;73.66;96456.18;1797272;79;26050;-80
2021/01/21 01:45:11;;;;;;;;;;;;;;;-1.41;73.72;96460.98;1794751;79;27502;-80
2021/01/21 01:47:41;;;;;;;;;;;;;;;-1.41;73.74;96443.77;1778222;79;26033;-79
2021/01/21 01:50:09;;;;;;;;;;;;;;;-1.45;73.81;96449.91;1775226;79;25608;-79
2021/01/21 01:52:41;;;;;;;;;;;;;;;-1.48;74.07;96443.11;1796651;79;25816;-79
2021/01/21 01:55:07;;;;;;;;;;;;;;;-1.51;74.12;96445.23;1780862;79;25971;-79
2021/01/21 01:57:34;;;;;;;;;;;;;;;-1.53;74.20;96457.80;1797204;79;28601;-79
2021/01/21 02:00:01;;;;;;;;;;;;;;;-1.50;74.13;96442.92;1797008;79;26319;-80
2021/01/21 02:02:28;;;;;;;;;;;;;;;-1.51;74.17;96442.59;1774806;79;25683;-80
2021/01/21 02:04:56;;;;;;;;;;;;;;;-1.54;74.25;96443.73;1775704;79;25919;-80
2021/01/21 02:07:23;;;;;;;;;;;;;;;-1.54;74.26;96449.52;1777488;79;25787;-81
2021/01/21 02:09:50;;;;;;;;;;;;;;;-1.50;74.25;96445.57;1795337;79;28452;-80
2021/01/21 02:12:48;;;;;;;;;;;;;;;-1.47;74.19;96448.73;1793815;79;25810;-80
2021/01/21 02:15:38;;;;;;;;;;;;;;;-1.47;74.11;96440.80;1785242;80;25666;-80
2021/01/21 02:18:21;;;;;;;;;;;;;;;-1.47;74.06;96442.13;1771617;79;26231;-80
2021/01/21 02:21:23;;;;;;;;;;;;;;;-1.47;74.00;96436.00;1759291;79;25838;-83
2021/01/21 02:24:09;;;;;;;;;;;;;;;-1.53;73.99;96428.69;1702812;83;27499;-83
2021/01/21 02:26:42;;;;;;;;;;;;;;;-1.58;73.98;96430.50;1742857;82;25853;-82
2021/01/21 02:29:15;;;;;;;;;;;;;;;-1.64;74.02;96428.97;1741349;82;25795;-82
2021/01/21 02:32:04;;;;;;;;;;;;;;;-1.64;74.14;96435.59;1741255;82;25898;-82
2021/01/21 02:34:52;;;;;;;;;;;;;;;-1.64;74.19;96438.23;1739218;82;25798;-82
2021/01/21 02:37:24;;;;;;;;;;;;;;;-1.59;74.17;96434.14;1770577;80;27502;-82
2021/01/21 02:39:54;;;;;;;;;;;;;;;-1.59;74.07;96437.27;1773467;79;26099;-82
2021/01/21 02:42:21;;;;;;;;;;;;;;;-1.63;74.06;96439.41;1772417;80;25725;-83
2021/01/21 02:44:48;;;;;;;;;;;;;;;-1.62;74.09;96438.91;1771418;79;25720;-83
2021/01/21 02:47:16;;;;;;;;;;;;;;;-1.63;74.06;96435.92;1772529;80;25840;-81
2021/01/21 02:49:44;;;;;;;;;;;;;;;-1.62;74.07;96436.27;1773506;80;27566;-83
2021/01/21 02:52:26;;;;;;;;;;;;;;;-1.63;74.06;96427.98;1748704;80;25780;-83
2021/01/21 02:54:57;;;;;;;;;;;;;;;-1.64;74.03;96432.95;1769042;81;25740;-82
2021/01/21 02:57:47;;;;;;;;;;;;;;;-1.63;73.96;96434.60;1773223;80;26276;-82
2021/01/21 03:00:15;;;;;;;;;;;;;;;-1.65;73.87;96440.55;1770630;80;26321;-83
2021/01/21 03:02:45;;;;;;;;;;;;;;;-1.74;73.86;96437.05;1749246;80;27512;-82
2021/01/21 03:05:14;;;;;;;;;;;;;;;-1.74;73.93;96434.40;1770752;80;25748;-82
2021/01/21 03:07:41;;;;;;;;;;;;;;;-1.74;73.87;96438.86;1772285;79;25905;-82
2021/01/21 03:10:10;;;;;;;;;;;;;;;-1.76;73.84;96432.40;1771265;80;26748;-82
2021/01/21 03:12:37;;;;;;;;;;;;;;;-1.77;73.81;96430.73;1772583;79;25902;-82
2021/01/21 03:15:06;;;;;;;;;;;;;;;-1.80;73.91;96436.34;1770721;80;27567;-82
2021/01/21 03:17:33;;;;;;;;;;;;;;;-1.83;73.93;96438.83;1773295;80;25802;-81
2021/01/21 03:20:00;;;;;;;;;;;;;;;-1.86;74.01;96443.11;1773456;79;25814;-82
2021/01/21 03:22:27;;;;;;;;;;;;;;;-1.86;74.03;96441.78;1783792;79;25901;-82
2021/01/21 03:24:54;;;;;;;;;;;;;;;-1.86;74.06;96436.50;1787255;79;25684;-81
2021/01/21 03:27:20;;;;;;;;;;;;;;;-1.87;74.00;96436.16;1787197;79;27696;-82
2021/01/21 03:29:47;;;;;;;;;;;;;;;-1.91;73.96;96433.97;1787229;79;25807;-81
2021/01/21 03:32:14;;;;;;;;;;;;;;;-1.93;73.84;96438.09;1787272;79;25796;-81
2021/01/21 03:34:41;;;;;;;;;;;;;;;-2.00;73.89;96433.60;1787221;79;26673;-82
2021/01/21 03:37:08;;;;;;;;;;;;;;;-2.01;74.02;96431.45;1787254;79;26498;-82
2021/01/21 03:39:35;;;;;;;;;;;;;;;-2.07;74.02;96444.48;1787173;79;26672;-82
2021/01/21 03:42:02;;;;;;;;;;;;;;;-2.08;74.03;96434.40;1787035;79;25724;-82
2021/01/21 03:44:29;;;;;;;;;;;;;;;-2.05;74.03;96437.23;1787318;79;26162;-81
2021/01/21 03:46:55;;;;;;;;;;;;;;;-2.10;73.91;96433.72;1787133;79;26017;-82
2021/01/21 03:49:22;;;;;;;;;;;;;;;-2.11;73.87;96431.23;1787293;79;25325;-81
2021/01/21 03:51:49;;;;;;;;;;;;;;;-2.11;73.86;96432.06;1787171;79;28472;-82
2021/01/21 03:54:16;;;;;;;;;;;;;;;-2.12;73.80;96426.92;1787060;79;25838;-82
2021/01/21 03:56:43;;;;;;;;;;;;;;;-2.13;73.80;96428.73;1787170;79;25819;-82
2021/01/21 03:59:10;;;;;;;;;;;;;;;-2.17;73.81;96425.26;1787206;79;25695;-81
2021/01/21 04:01:37;;;;;;;;;;;;;;;-2.18;73.95;96435.00;1787200;79;25770;-82
2021/01/21 04:04:04;;;;;;;;;;;;;;;-2.17;74.05;96428.70;1787211;79;28352;-82
2021/01/21 04:06:31;;;;;;;;;;;;;;;-2.20;73.92;96429.04;1787124;79;26389;-82
2021/01/21 04:08:58;;;;;;;;;;;;;;;-2.24;74.00;96428.52;1787259;79;25754;-81
2021/01/21 04:11:25;;;;;;;;;;;;;;;-2.22;74.04;96423.08;1787187;79;26755;-81
2021/01/21 04:13:52;;;;;;;;;;;;;;;-2.23;73.99;96415.64;1787247;79;25865;-82
2021/01/21 04:16:19;;;;;;;;;;;;;;;-2.23;73.83;96413.48;1764747;80;27507;-81
2021/01/21 04:18:46;;;;;;;;;;;;;;;-2.27;73.75;96410.80;1787137;79;25745;-81
2021/01/21 04:21:13;;;;;;;;;;;;;;;-2.30;73.72;96413.30;1787308;79;25825;-81
2021/01/21 04:23:39;;;;;;;;;;;;;;;-2.46;73.67;96409.70;1780721;80;25694;-81
2021/01/21 04:26:06;;;;;;;;;;;;;;;-2.49;73.71;96413.97;1778713;79;25699;-81
2021/01/21 04:28:33;;;;;;;;;;;;;;;-2.50;73.85;96407.86;1788518;79;27487;-81
2021/01/21 04:31:00;;;;;;;;;;;;;;;-2.56;73.86;96413.28;1777706;79;25725;-81
2021/01/21 04:33:28;;;;;;;;;;;;;;;-2.59;73.94;96412.27;1781705;79;25763;-81
2021/01/21 04:35:55;;;;;;;;;;;;;;;-2.57;73.95;96393.61;1788408;79;26101;-82
2021/01/21 04:38:22;;;;;;;;;;;;;;;-2.57;73.90;96403.70;1788671;79;25694;-82
2021/01/21 04:40:49;;;;;;;;;;;;;;;-2.57;73.98;96389.16;1788476;79;27502;-82
2021/01/21 04:43:15;;;;;;;;;;;;;;;-2.67;73.99;96393.72;1788541;79;25801;-82
2021/01/21 04:45:43;;;;;;;;;;;;;;;-2.74;74.01;96395.79;1788563;79;25933;-81
2021/01/21 04:48:10;;;;;;;;;;;;;;;-2.79;74.08;96396.27;1788519;79;25895;-82
2021/01/21 04:50:37;;;;;;;;;;;;;;;-2.85;74.04;96400.00;1762129;80;25739;-82
2021/01/21 04:53:06;;;;;;;;;;;;;;;-2.85;74.07;96394.72;1788607;79;27574;-82
2021/01/21 04:55:36;;;;;;;;;;;;;;;-2.86;74.08;96404.45;1788439;79;25755;-82
2021/01/21 04:58:27;;;;;;;;;;;;;;;-2.84;74.16;96405.13;1787578;79;25803;-81
2021/01/21 05:00:54;;;;;;;;;;;;;;;-2.80;74.14;96405.66;1788644;79;25823;-82
2021/01/21 05:03:22;;;;;;;;;;;;;;;-2.78;74.15;96415.09;1788646;79;25798;-82
2021/01/21 05:05:49;;;;;;;;;;;;;;;-2.75;74.30;96408.16;1788561;79;27567;-82
2021/01/21 05:08:16;;;;;;;;;;;;;;;-2.77;74.39;96404.84;1788377;79;26707;-81
2021/01/21 05:10:43;;;;;;;;;;;;;;;-2.78;74.40;96403.70;1788503;79;25785;-82
2021/01/21 05:13:10;;;;;;;;;;;;;;;-2.84;74.53;96401.17;1788524;79;26040;-82
2021/01/21 05:15:37;;;;;;;;;;;;;;;-2.80;74.65;96405.66;1787273;79;26300;-82
2021/01/21 05:18:05;;;;;;;;;;;;;;;-2.89;74.43;96407.39;1781117;79;26519;-82
2021/01/21 05:20:34;;;;;;;;;;;;;;;-3.00;74.64;96399.22;1788486;79;26142;-83
2021/01/21 05:23:03;;;;;;;;;;;;;;;-3.02;74.85;96401.70;1787521;79;25711;-82
2021/01/21 05:25:31;;;;;;;;;;;;;;;-3.03;75.20;96405.31;1787168;79;26035;-82
2021/01/21 05:27:59;;;;;;;;;;;;;;;-2.98;75.41;96395.11;1787153;79;25811;-82
2021/01/21 05:30:30;;;;;;;;;;;;;;;-2.89;75.33;96396.83;1787212;79;27741;-82
2021/01/21 05:32:58;;;;;;;;;;;;;;;-2.90;75.29;96395.20;1786963;79;25357;-82
2021/01/21 05:35:26;;;;;;;;;;;;;;;-2.90;75.27;96399.95;1787175;79;25845;-82
2021/01/21 05:37:56;;;;;;;;;;;;;;;-2.88;75.23;96396.33;1787050;79;26550;-82
2021/01/21 05:40:28;;;;;;;;;;;;;;;-2.86;75.16;96393.88;1787135;79;25822;-82
2021/01/21 05:42:57;;;;;;;;;;;;;;;-2.91;75.24;96398.81;1787158;79;27496;-82
2021/01/21 05:45:25;;;;;;;;;;;;;;;-2.92;75.31;96403.27;1787098;79;26304;-82
2021/01/21 05:48:00;;;;;;;;;;;;;;;-2.97;75.30;96395.45;1787125;79;25786;-82
2021/01/21 05:50:30;;;;;;;;;;;;;;;-2.96;75.29;96404.54;1787127;79;26932;-82
2021/01/21 05:52:58;;;;;;;;;;;;;;;-2.96;75.22;96395.30;1787182;79;25843;-82
2021/01/21 05:55:28;;;;;;;;;;;;;;;-2.95;75.28;96394.32;1787037;79;27553;-82
2021/01/21 05:57:55;;;;;;;;;;;;;;;-2.93;75.39;96406.05;1787094;79;25806;-82
2021/01/21 06:00:27;;;;;;;;;;;;;;;-2.91;75.45;96404.09;1786845;79;36099;-82
2021/01/21 06:02:54;;;;;;;;;;;;;;;-2.88;75.48;96400.30;1787156;79;25899;-82
2021/01/21 06:05:22;;;;;;;;;;;;;;;-2.88;75.57;96399.80;1787073;79;25837;-82
2021/01/21 06:07:51;;;;;;;;;;;;;;;-2.85;75.73;96394.23;1787076;79;27503;-82
2021/01/21 06:10:19;;;;;;;;;;;;;;;-2.84;75.82;96393.73;1787090;79;26317;-82
2021/01/21 06:12:48;;;;;;;;;;;;;;;-2.82;75.75;96396.57;1787231;79;26304;-82
2021/01/21 06:15:17;;;;;;;;;;;;;;;-2.80;75.66;96397.25;1787147;79;26676;-82
2021/01/21 06:17:48;;;;;;;;;;;;;;;-2.78;75.50;96393.97;1787160;79;25672;-82
2021/01/21 06:20:17;;;;;;;;;;;;;;;-2.87;75.32;96398.83;1787126;79;27510;-82
2021/01/21 06:22:45;;;;;;;;;;;;;;;-2.87;75.38;96396.19;1786856;79;26217;-82
2021/01/21 06:25:15;;;;;;;;;;;;;;;-2.90;75.17;96395.20;1787022;79;25837;-82
2021/01/21 06:27:45;;;;;;;;;;;;;;;-2.90;75.18;96396.52;1787074;79;26774;-82
2021/01/21 06:30:18;;;;;;;;;;;;;;;-2.88;75.24;96392.38;1787150;79;25816;-82
2021/01/21 06:33:04;;;;;;;;;;;;;;;-2.90;75.15;96397.31;1787060;79;27556;-82
2021/01/21 06:35:33;;;;;;;;;;;;;;;-2.89;75.10;96402.11;1787103;79;27405;-82
2021/01/21 06:38:06;;;;;;;;;;;;;;;-2.93;74.91;96398.13;1787148;79;25321;-83
2021/01/21 06:40:35;;;;;;;;;;;;;;;-2.96;74.88;96401.07;1786831;79;26741;-82
2021/01/21 06:43:19;;;;;;;;;;;;;;;-2.99;74.96;96401.36;1787113;79;25774;-82
2021/01/21 06:45:47;;;;;;;;;;;;;;;-2.99;75.15;96406.64;1786243;79;27509;-82
2021/01/21 06:48:14;;;;;;;;;;;;;;;-3.01;75.26;96398.05;1786774;79;26151;-82
2021/01/21 06:50:42;;;;;;;;;;;;;;;-2.98;75.35;96392.47;1787016;79;25341;-82
2021/01/21 06:53:11;;;;;;;;;;;;;;;-2.94;75.32;96393.83;1787090;79;26492;-82
2021/01/21 06:55:39;;;;;;;;;;;;;;;-2.91;75.27;96393.53;1786987;79;25918;-82
2021/01/21 06:58:07;;;;;;;;;;;;;;;-2.89;75.20;96396.83;1787305;79;28438;-82
2021/01/21 07:00:40;;;;;;;;;;;;;;;-2.86;75.11;96396.53;1787096;79;26339;-82
2021/01/21 07:03:28;;;;;;;;;;;;;;;-2.86;75.08;96408.41;1787239;79;25862;-82
2021/01/21 07:05:57;;;;;;;;;;;;;;;-2.86;75.15;96400.48;1729685;81;26376;-83
2021/01/21 07:08:24;;;;;;;;;;;;;;;-2.80;75.28;96402.53;1729982;82;25400;-82
2021/01/21 07:10:51;;;;;;;;;;;;;;;-2.79;75.26;96402.87;1729726;81;28553;-82
2021/01/21 07:26:50;;;;;;;;;;;;;;;-2.42;75.24;96398.68;1776632;78;25688;-83
2021/01/21 07:29:19;;;;;;;;;;;;;;;-2.41;75.34;96400.80;1731184;80;25893;-84
2021/01/21 07:31:59;;;;;;;;;;;;;;;-2.34;75.42;96407.14;1739500;80;27503;-84
2021/01/21 07:34:27;;;;;;;;;;;;;;;-2.25;75.53;96398.27;1732799;80;25786;-84
2021/01/21 07:37:14;;;;;;;;;;;;;;;-2.16;75.54;96392.03;1743367;80;26500;-84
2021/01/21 07:40:02;;;;;;;;;;;;;;;-2.11;75.58;96401.66;1722629;81;25919;-83
2021/01/21 07:42:36;;;;;;;;;;;;;;;-2.00;75.63;96391.29;1717149;80;26520;-83
2021/01/21 07:45:07;;;;;;;;;;;;;;;-1.93;75.59;96398.91;1674038;83;27526;-83
2021/01/21 07:47:38;;;;;;;;;;;;;;;-1.86;75.59;96391.53;1676822;83;25888;-82
2021/01/21 07:50:22;;;;;;;;;;;;;;;-1.79;75.60;96380.29;1670655;83;26003;-80
2021/01/21 07:52:53;;;;;;;;;;;;;;;-1.70;75.69;96385.97;1665760;84;25940;-79
2021/01/21 07:55:38;;;;;;;;;;;;;;;-1.61;75.72;96383.67;1713017;82;25898;-80
2021/01/21 07:58:27;;;;;;;;;;;;;;;-1.51;75.79;96375.09;1715479;82;27478;-82
2021/01/21 08:01:00;;;;;;;;;;;;;;;-1.38;75.75;96375.46;1672039;83;26330;-82
2021/01/21 08:03:40;;;;;;;;;;;;;;;-1.30;75.69;96378.61;1664203;83;25523;-81
2021/01/21 08:06:11;;;;;;;;;;;;;;;-1.23;75.74;96381.78;1691321;83;27878;-83
2021/01/21 08:08:43;;;;;;;;;;;;;;;-1.14;75.72;96378.15;1683371;83;26727;-82
2021/01/21 08:11:18;;;;;;;;;;;;;;;-1.11;75.66;96379.16;1683722;82;27717;-84
2021/01/21 08:13:47;;;;;;;;;;;;;;;-1.02;75.70;96379.15;1666673;83;25721;-83
2021/01/21 08:16:17;;;;;;;;;;;;;;;-0.93;75.65;96383.45;1674363;83;25805;-82
2021/01/21 08:18:45;;;;;;;;;;;;;;;-0.88;75.61;96382.47;1672637;83;25991;-80
2021/01/21 08:21:24;;;;;;;;;;;;;;;-0.82;75.58;96391.07;1690988;82;26365;-82
2021/01/21 08:26:33;;;;;;;;;;;;;;;-0.50;75.75;96388.92;1856896;75;25644;-79
2021/01/21 08:29:01;;;;;;;;;;;;;;;-0.37;75.62;96387.41;1788404;78;25845;-81
2021/01/21 08:31:46;;;;;;;;;;;;;;;-0.29;75.56;96372.47;1807804;78;27360;-79
2021/01/21 08:34:23;;;;;;;;;;;;;;;-0.13;75.61;96365.81;1807853;78;25932;-79
2021/01/21 08:37:04;;;;;;;;;;;;;;;0.10;75.62;96359.27;1788661;78;25699;-79
2021/01/21 08:39:32;;;;;;;;;;;;;;;0.32;75.56;96360.66;1780517;78;25671;-79
2021/01/21 08:41:59;;;;;;;;;;;;;;;0.53;75.33;96361.88;1772158;78;25824;-79
2021/01/21 08:44:26;;;;;;;;;;;;;;;0.74;75.33;96359.41;1806707;77;27709;-80
2021/01/21 08:49:37;;;;;;;;;;;;;;;1.21;75.07;96355.78;1868004;76;25636;-81
2021/01/21 08:52:08;;;;;;;;;;;;;;;1.36;74.94;96354.80;1810247;78;25917;-82
2021/01/21 08:54:35;;;;;;;;;;;;;;;1.53;74.82;96347.51;1804318;78;27693;-81
2021/01/21 08:57:12;;;;;;;;;;;;;;;1.71;74.55;96342.66;1788898;78;26033;-83
2021/01/21 08:59:40;;;;;;;;;;;;;;;1.90;74.52;96341.81;1799865;78;25786;-82
2021/01/21 09:02:09;;;;;;;;;;;;;;;2.07;74.21;96348.08;1792167;78;26418;-83
2021/01/21 09:04:37;;;;;;;;;;;;;;;2.19;73.89;96341.78;1785809;78;25455;-81
2021/01/21 09:07:09;;;;;;;;;;;;;;;2.30;73.75;96339.98;1795678;78;28541;-81
2021/01/21 09:09:40;;;;;;;;;;;;;;;2.35;73.42;96343.43;1785347;78;25673;-82
2021/01/21 09:12:21;;;;;;;;;;;;;;;2.40;73.41;96342.37;1796219;78;25796;-83
2021/01/21 09:15:10;;;;;;;;;;;;;;;2.49;73.36;96347.41;1807114;78;26362;-79
2021/01/21 09:17:38;;;;;;;;;;;;;;;2.60;73.23;96342.60;1814056;78;25311;-83
2021/01/21 09:20:24;;;;;;;;;;;;;;;2.74;73.08;96333.75;1824800;77;28428;-82
2021/01/21 09:22:51;;;;;;;;;;;;;;;2.89;73.16;96331.87;1824728;77;26343;-80
2021/01/21 09:25:27;;;;;;;;;;;;;;;3.15;73.37;96332.09;1824365;78;25791;-84
2021/01/21 09:27:56;;;;;;;;;;;;;;;3.48;73.51;96331.58;1802899;78;26383;-84
2021/01/21 09:30:24;;;;;;;;;;;;;;;3.81;73.42;96332.64;1791731;77;25852;-84
2021/01/21 09:32:51;;;;;;;;;;;;;;;4.05;73.00;96326.52;1806110;78;28934;-84
2021/01/21 09:35:22;;;;;;;;;;;;;;;4.30;72.88;96329.02;1787271;78;26314;-85
2021/01/21 09:37:54;;;;;;;;;;;;;;;4.59;72.55;96336.73;1796423;78;25793;-85
2021/01/21 09:40:26;;;;;;;;;;;;;;;4.90;72.52;96324.72;1801231;77;25831;-85
2021/01/21 09:42:55;;;;;;;;;;;;;;;5.21;72.14;96326.30;1824829;78;25996;-84
2021/01/21 09:45:24;;;;;;;;;;;;;;;5.56;71.85;96330.13;1824734;77;27695;-85
2021/01/21 09:47:51;;;;;;;;;;;;;;;5.87;70.87;96326.31;1824500;77;26285;-84
2021/01/21 09:50:20;;;;;;;;;;;;;;;6.13;70.64;96318.78;1816418;77;26075;-85
2021/01/21 09:52:47;;;;;;;;;;;;;;;6.40;70.31;96324.90;1793762;78;25822;-85
2021/01/21 09:55:15;;;;;;;;;;;;;;;6.68;69.56;96327.25;1785361;78;25754;-85
2021/01/21 09:57:42;;;;;;;;;;;;;;;6.95;70.08;96314.53;1799669;78;27704;-84
2021/01/21 10:00:11;;;;;;;;;;;;;;;7.15;69.06;96311.20;1824031;77;25793;-85
2021/01/21 10:02:39;;;;;;;;;;;;;;;7.47;69.13;96309.34;1824100;78;25315;-84
2021/01/21 10:05:07;;;;;;;;;;;;;;;7.76;68.48;96305.16;1823901;78;25789;-84
2021/01/21 10:07:34;;;;;;;;;;;;;;;7.96;67.80;96303.13;1798257;78;25317;-85
2021/01/21 10:10:01;;;;;;;;;;;;;;;8.21;67.46;96306.56;1780322;78;27699;-84
2021/01/21 10:12:28;;;;;;;;;;;;;;;8.52;66.97;96308.86;1820137;78;25874;-84
2021/01/21 10:14:58;;;;;;;;;;;;;;;8.80;66.68;96309.66;1801180;78;25724;-83
2021/01/21 10:17:25;;;;;;;;;;;;;;;9.00;65.98;96309.69;1786284;78;25845;-82
2021/01/21 10:19:52;;;;;;;;;;;;;;;9.25;65.74;96308.72;1824028;77;25849;-84
2021/01/21 10:22:19;;;;;;;;;;;;;;;9.46;65.08;96302.80;1793154;77;28907;-83
2021/01/21 10:24:49;;;;;;;;;;;;;;;9.66;64.65;96299.26;1824048;77;25745;-84
2021/01/21 10:27:17;;;;;;;;;;;;;;;9.75;63.96;96291.15;1811095;77;25784;-81
2021/01/21 10:29:44;;;;;;;;;;;;;;;9.85;64.01;96289.74;1824080;77;25386;-84
2021/01/21 10:32:11;;;;;;;;;;;;;;;9.86;63.75;96288.16;1796860;78;25798;-82
2021/01/21 10:34:38;;;;;;;;;;;;;;;9.94;63.30;96278.38;1780259;78;27712;-81
2021/01/21 10:37:05;;;;;;;;;;;;;;;10.16;63.35;96278.59;1803796;78;25771;-81
2021/01/21 10:39:32;;;;;;;;;;;;;;;10.40;62.81;96280.76;1821251;77;25792;-84
2021/01/21 10:41:59;;;;;;;;;;;;;;;10.53;62.53;96276.98;1814075;78;26189;-81
2021/01/21 10:44:26;;;;;;;;;;;;;;;10.54;61.86;96282.67;1824110;77;26040;-84
2021/01/21 10:46:53;;;;;;;;;;;;;;;10.70;61.84;96276.53;1824148;78;27655;-82
2021/01/21 10:49:21;;;;;;;;;;;;;;;10.94;61.42;96272.70;1793833;77;25731;-82
2021/01/21 10:51:48;;;;;;;;;;;;;;;11.12;61.09;96264.38;1807216;78;26247;-85
2021/01/21 10:54:15;;;;;;;;;;;;;;;11.26;60.52;96269.48;1806181;77;26346;-84
2021/01/21 10:56:42;;;;;;;;;;;;;;;11.43;60.14;96256.83;1811914;77;25756;-85
2021/01/21 10:59:09;;;;;;;;;;;;;;;11.62;60.10;96255.52;1824163;77;27482;-83
2021/01/21 11:01:36;;;;;;;;;;;;;;;11.83;59.33;96252.66;1796207;78;25747;-84
2021/01/21 11:04:04;;;;;;;;;;;;;;;11.92;59.04;96253.05;1780344;78;25775;-79
2021/01/21 11:06:31;;;;;;;;;;;;;;;11.95;58.06;96254.73;1794519;78;26143;-81
2021/01/21 11:08:58;;;;;;;;;;;;;;;11.96;58.13;96251.47;1805407;78;25789;-83
2021/01/21 11:11:25;;;;;;;;;;;;;;;11.95;57.78;96247.16;1793438;78;28533;-83
2021/01/21 11:13:54;;;;;;;;;;;;;;;12.00;57.63;96238.56;1811013;77;25793;-83
2021/01/21 11:16:21;;;;;;;;;;;;;;;12.12;57.07;96241.16;1798087;78;25788;-84
2021/01/21 11:18:48;;;;;;;;;;;;;;;12.33;57.47;96236.84;1823897;78;25806;-85
2021/01/21 11:21:17;;;;;;;;;;;;;;;12.45;56.91;96232.95;1824226;78;25698;-85
2021/01/21 11:23:44;;;;;;;;;;;;;;;12.60;56.13;96231.80;1813251;78;27482;-80
2021/01/21 11:26:12;;;;;;;;;;;;;;;12.69;56.03;96229.45;1812270;78;26335;-83
2021/01/21 11:28:39;;;;;;;;;;;;;;;12.67;55.56;96230.80;1780230;78;26293;-80
2021/01/21 11:31:05;;;;;;;;;;;;;;;12.73;55.29;96224.36;1815732;78;25685;-83
2021/01/21 11:33:33;;;;;;;;;;;;;;;12.76;55.05;96223.32;1793063;78;25684;-78
2021/01/21 11:36:00;;;;;;;;;;;;;;;12.93;55.10;96217.80;1813567;78;28562;-83
2021/01/21 11:38:27;;;;;;;;;;;;;;;13.16;54.76;96215.38;1807781;78;26019;-81
2021/01/21 11:40:54;;;;;;;;;;;;;;;13.21;53.42;96216.23;1780284;78;25361;-83
2021/01/21 11:43:21;;;;;;;;;;;;;;;13.22;53.85;96215.16;1823416;77;26143;-84
2021/01/21 11:45:48;;;;;;;;;;;;;;;13.36;53.98;96214.74;1798002;78;25723;-83
2021/01/21 11:48:16;;;;;;;;;;;;;;;13.36;52.74;96209.32;1811209;78;28634;-80
2021/01/21 11:50:43;;;;;;;;;;;;;;;13.38;54.16;96201.22;1823950;77;25384;-84
2021/01/21 11:53:11;;;;;;;;;;;;;;;13.28;52.21;96199.21;1794773;77;25764;-82
2021/01/21 11:55:38;;;;;;;;;;;;;;;13.33;52.74;96191.14;1810980;78;25663;-80
2021/01/21 11:58:05;;;;;;;;;;;;;;;13.50;52.10;96192.38;1805963;78;25690;-82
2021/01/21 12:00:32;;;;;;;;;;;;;;;13.36;51.75;96198.48;1784671;78;27666;-83
2021/01/21 12:02:59;;;;;;;;;;;;;;;13.22;51.62;96188.06;1780236;78;25701;-84
2021/01/21 12:05:26;;;;;;;;;;;;;;;13.27;52.77;96193.54;1815987;78;26317;-79
2021/01/21 12:07:53;;;;;;;;;;;;;;;13.41;51.68;96191.19;1823966;78;26527;-83
2021/01/21 12:10:20;;;;;;;;;;;;;;;13.22;51.40;96184.00;1792158;77;25778;-83
2021/01/21 12:12:48;;;;;;;;;;;;;;;13.27;51.85;96188.13;1787628;78;27481;-80
2021/01/21 12:15:15;;;;;;;;;;;;;;;13.43;51.36;96189.58;1808735;77;26105;-81
2021/01/21 12:17:43;;;;;;;;;;;;;;;13.50;51.53;96182.06;1812385;77;25719;-80
2021/01/21 12:20:11;;;;;;;;;;;;;;;13.77;51.08;96189.56;1797481;77;25746;-80
2021/01/21 12:22:38;;;;;;;;;;;;;;;13.61;51.41;96191.91;1795550;78;25722;-84
2021/01/21 12:25:05;;;;;;;;;;;;;;;13.18;50.41;96188.28;1805397;78;27584;-82
2021/01/21 12:27:33;;;;;;;;;;;;;;;12.83;48.83;96197.39;1809287;78;25718;-83
2021/01/21 12:30:00;;;;;;;;;;;;;;;12.46;49.31;96197.23;1823846;78;25687;-82
2021/01/21 12:32:27;;;;;;;;;;;;;;;12.28;49.41;96202.44;1793131;78;25869;-83
2021/01/21 12:34:54;;;;;;;;;;;;;;;12.17;49.50;96193.91;1824075;78;25789;-83
2021/01/21 12:37:21;;;;;;;;;;;;;;;11.92;48.95;96192.20;1823760;78;27637;-84
2021/01/21 12:39:49;;;;;;;;;;;;;;;11.89;50.13;96187.58;1812588;78;26113;-83
2021/01/21 12:42:16;;;;;;;;;;;;;;;12.09;50.36;96187.56;1805467;78;25762;-83
2021/01/21 12:44:43;;;;;;;;;;;;;;;12.21;50.70;96188.26;1823628;78;26225;-85
2021/01/21 12:47:10;;;;;;;;;;;;;;;12.11;49.20;96171.37;1823924;78;25894;-85
2021/01/21 12:49:42;;;;;;;;;;;;;;;11.97;49.85;96181.45;1823355;78;27368;-82
2021/01/21 12:52:11;;;;;;;;;;;;;;;11.92;49.75;96162.46;1812570;78;25804;-86
2021/01/21 12:54:38;;;;;;;;;;;;;;;11.80;49.20;96166.63;1787492;78;25879;-86
2021/01/21 12:57:06;;;;;;;;;;;;;;;11.53;48.32;96167.28;1806239;78;25852;-83
2021/01/21 12:59:33;;;;;;;;;;;;;;;11.27;48.39;96172.00;1794771;78;25872;-84
2021/01/21 13:01:59;;;;;;;;;;;;;;;11.11;49.43;96166.87;1822759;78;28465;-82
2021/01/21 13:04:26;;;;;;;;;;;;;;;11.19;49.87;96174.59;1823697;78;26078;-85
2021/01/21 13:06:53;;;;;;;;;;;;;;;11.19;49.77;96177.28;1824069;78;25693;-88
2021/01/21 13:09:20;;;;;;;;;;;;;;;11.06;48.96;96174.90;1821553;78;25728;-86
2021/01/21 13:11:47;;;;;;;;;;;;;;;10.93;49.14;96181.95;1805546;78;25700;-87
2021/01/21 13:14:14;;;;;;;;;;;;;;;10.87;49.55;96189.66;1819336;78;27393;-84
2021/01/21 13:16:41;;;;;;;;;;;;;;;10.89;50.17;96185.38;1808325;78;25703;-85
2021/01/21 13:19:08;;;;;;;;;;;;;;;10.91;49.97;96181.38;1780130;78;25861;-86